This is the latest recevied weather packets stored in our database for station/object PY2CQC-13. If no packets are shown the sender has not sent any weather packets the latest 10 day(s).
| Time | Temp. | Humidity | Pressure | Rain* | Wind** | Luminosity | Snow |
|---|---|---|---|---|---|---|---|
| 1776924125 | 21.11° C | 66% | 1034.2 hPa | - | - | - | - |
| 1776922325 | 21.67° C | 65% | 1034.2 hPa | - | - | - | - |
| 1776920525 | 22.22° C | 64% | 1034.2 hPa | - | - | - | - |
| 1776918725 | 22.22° C | 63% | 1034.4 hPa | - | - | - | - |
| 1776916925 | 23.33° C | 60% | 1034.6 hPa | - | - | - | - |
| 1776915124 | 23.33° C | 59% | 1034.9 hPa | - | - | - | - |
| 1776913324 | 23.33° C | 58% | 1034.9 hPa | - | - | - | - |
| 1776911525 | 23.89° C | 57% | 1035 hPa | - | - | - | - |
| 1776909725 | 23.89° C | 56% | 1035.1 hPa | - | - | - | - |
| 1776907925 | 23.89° C | 56% | 1035.1 hPa | - | - | - | - |
| 1776906125 | 23.89° C | 55% | 1035.2 hPa | - | - | - | - |
| 1776904325 | 24.44° C | 55% | 1035 hPa | - | - | - | - |
| 1776902524 | 24.44° C | 53% | 1034.6 hPa | - | - | - | - |
| 1776900724 | 24.44° C | 50% | 1034.4 hPa | - | - | - | - |
| 1776898925 | 24.44° C | 47% | 1034 hPa | - | - | - | - |
| 1776897125 | 25° C | 45% | 1033.8 hPa | - | - | - | - |
| 1776895325 | 25° C | 48% | 1033.5 hPa | - | - | - | - |
| 1776893525 | 26.67° C | 46% | 1033.3 hPa | - | - | - | - |
| 1776891724 | 25° C | 51% | 1033.2 hPa | - | - | - | - |
| 1776889924 | 25° C | 51% | 1032.8 hPa | - | - | - | - |
| 1776888124 | 25° C | 51% | 1032.7 hPa | - | - | - | - |
| 1776886324 | 25° C | 52% | 1032.6 hPa | - | - | - | - |
| 1776884525 | 24.44° C | 53% | 1032.3 hPa | - | - | - | - |
| 1776882725 | 24.44° C | 54% | 1032.3 hPa | - | - | - | - |
| 1776880925 | 24.44° C | 54% | 1032.5 hPa | - | - | - | - |
* Rain since midnight (hover to see other rain measurements)
** Current wind speed in m/s (hover to see current wind gust speed)